createdAt,value
2018-10-02T00:02:28.215Z,91.11
2018-10-02T00:07:21.332Z,90.98
2018-10-02T00:12:19.807Z,90.93
2018-10-02T00:17:12.991Z,90.47
2018-10-02T00:22:06.173Z,89.75
2018-10-02T00:26:59.448Z,89.05
2018-10-02T00:31:52.608Z,89.31
2018-10-02T00:36:45.750Z,90.37
2018-10-02T00:41:38.909Z,91.60
2018-10-02T00:46:32.098Z,91.60
2018-10-02T00:51:25.213Z,92.38
2018-10-02T00:56:18.624Z,91.34
2018-10-02T01:01:11.817Z,91.80
2018-10-02T01:06:05.022Z,91.30
2018-10-02T01:10:58.167Z,90.53
2018-10-02T01:15:51.329Z,91.25
2018-10-02T01:20:44.525Z,91.17
2018-10-02T01:25:37.649Z,90.62
2018-10-02T01:30:30.929Z,91.52
2018-10-02T01:35:24.193Z,92.80
2018-10-02T01:40:17.217Z,92.10
2018-10-02T01:45:10.423Z,90.24
2018-10-02T01:50:03.676Z,90.23
2018-10-02T01:54:57.003Z,90.26
2018-10-02T01:59:50.229Z,89.88
2018-10-02T02:04:43.319Z,90.25
2018-10-02T02:09:36.485Z,89.81
2018-10-02T02:14:29.646Z,88.88
2018-10-02T02:19:22.857Z,87.36
2018-10-02T02:24:15.985Z,86.84
2018-10-02T02:29:09.456Z,86.55
2018-10-02T02:34:02.687Z,87.95
2018-10-02T02:38:55.840Z,87.69
2018-10-02T02:43:49.031Z,87.03
2018-10-02T02:48:47.485Z,86.85
2018-10-02T02:53:40.841Z,88.89
2018-10-02T02:58:34.134Z,93.08
2018-10-02T03:03:27.350Z,93.63
2018-10-02T03:08:20.479Z,93.33
2018-10-02T03:13:13.544Z,90.45
2018-10-02T03:18:06.794Z,88.72
2018-10-02T03:23:00.031Z,87.91
2018-10-02T03:27:53.199Z,86.74
2018-10-02T03:32:46.365Z,86.96
2018-10-02T03:37:39.473Z,87.63
2018-10-02T03:42:32.662Z,86.30
2018-10-02T03:47:26.874Z,85.91
2018-10-02T03:52:20.074Z,85.98
2018-10-02T03:57:13.274Z,86.35
2018-10-02T04:02:06.617Z,86.83
2018-10-02T04:06:59.796Z,87.46
2018-10-02T04:11:52.944Z,88.00
2018-10-02T04:16:46.224Z,87.75
2018-10-02T04:21:39.247Z,86.44
2018-10-02T04:26:32.811Z,86.66
2018-10-02T04:31:25.907Z,87.38
2018-10-02T04:36:19.040Z,87.32
2018-10-02T04:41:12.163Z,87.48
2018-10-02T04:46:05.334Z,87.06
2018-10-02T04:50:58.417Z,87.54
2018-10-02T04:55:51.572Z,87.28
2018-10-02T05:00:44.746Z,87.47
2018-10-02T05:05:37.871Z,87.55
2018-10-02T05:10:31.140Z,87.95
2018-10-02T05:15:24.397Z,87.88
2018-10-02T05:20:17.540Z,87.87
2018-10-02T05:25:10.833Z,87.19
2018-10-02T05:30:04.177Z,86.79
2018-10-02T05:34:57.599Z,86.72
2018-10-02T05:39:50.638Z,86.08
2018-10-02T05:44:44.101Z,85.35
2018-10-02T05:49:37.314Z,84.81
2018-10-02T05:54:31.492Z,84.39
2018-10-02T05:59:24.579Z,84.98
2018-10-02T06:04:17.816Z,84.08
2018-10-02T06:09:12.283Z,84.16
2018-10-02T06:14:05.605Z,83.98
2018-10-02T06:18:58.805Z,82.49
2018-10-02T06:23:53.109Z,83.59
2018-10-02T06:28:46.198Z,84.57
2018-10-02T06:33:39.353Z,84.26
2018-10-02T06:38:32.702Z,84.72
2018-10-02T06:43:25.816Z,84.67
2018-10-02T06:48:19.808Z,84.55
2018-10-02T06:53:13.007Z,84.68
2018-10-02T06:58:06.117Z,84.09
2018-10-02T07:02:59.328Z,83.30
2018-10-02T07:07:52.532Z,82.84
2018-10-02T07:12:45.619Z,81.53
2018-10-02T07:17:38.895Z,81.81
2018-10-02T07:22:31.930Z,80.63
2018-10-02T07:27:25.306Z,79.79
2018-10-02T07:32:18.286Z,80.30
2018-10-02T07:37:11.398Z,79.58
2018-10-02T07:42:05.278Z,80.18
2018-10-02T07:46:58.458Z,79.79
2018-10-02T07:51:51.582Z,78.87
2018-10-02T07:56:45.089Z,79.45
2018-10-02T08:01:38.253Z,78.99
2018-10-02T08:06:31.486Z,76.93
2018-10-02T08:11:24.632Z,75.06
2018-10-02T08:16:17.831Z,75.08
2018-10-02T08:21:10.937Z,74.54
2018-10-02T08:26:04.147Z,73.87
2018-10-02T08:30:58.837Z,72.39
2018-10-02T08:35:52.027Z,70.77
2018-10-02T08:40:45.208Z,72.16
2018-10-02T08:45:38.343Z,72.87
2018-10-02T08:50:31.504Z,71.58
2018-10-02T08:55:24.834Z,71.61
2018-10-02T09:00:18.089Z,71.77
2018-10-02T09:05:11.324Z,70.56
2018-10-02T09:10:04.628Z,70.79
2018-10-02T09:14:58.142Z,70.44
2018-10-02T09:19:51.321Z,71.37
2018-10-02T09:24:44.549Z,70.15
2018-10-02T09:29:42.871Z,68.89
2018-10-02T09:34:41.610Z,68.17
2018-10-02T09:39:40.331Z,67.98
2018-10-02T09:44:33.550Z,67.83
2018-10-02T09:49:26.706Z,67.07
2018-10-02T09:54:20.022Z,66.83
2018-10-02T09:59:14.329Z,66.56
2018-10-02T10:04:07.555Z,66.05
2018-10-02T10:09:00.966Z,66.70
2018-10-02T10:13:54.145Z,64.54
2018-10-02T10:18:47.282Z,65.27
2018-10-02T10:23:40.464Z,64.97
2018-10-02T10:28:33.668Z,67.23
2018-10-02T10:33:27.240Z,67.07
2018-10-02T10:38:20.447Z,67.13
2018-10-02T10:43:13.617Z,67.14
2018-10-02T10:48:06.794Z,66.90
2018-10-02T10:52:59.931Z,67.10
2018-10-02T10:57:53.181Z,67.20
2018-10-02T11:02:46.636Z,65.48
2018-10-02T11:07:39.853Z,66.05
2018-10-02T11:12:33.113Z,64.66
2018-10-02T11:17:26.387Z,65.61
2018-10-02T11:22:19.737Z,65.06
2018-10-02T11:27:12.943Z,64.81
2018-10-02T11:32:06.527Z,62.33
2018-10-02T11:36:59.787Z,62.41
2018-10-02T11:41:53.161Z,63.20
2018-10-02T11:46:46.236Z,62.97
2018-10-02T11:51:39.557Z,62.85
2018-10-02T11:56:32.829Z,61.03
2018-10-02T12:01:26.435Z,62.63
2018-10-02T12:06:19.685Z,63.18
2018-10-02T12:11:13.004Z,61.02
2018-10-02T12:16:06.318Z,61.22
2018-10-02T12:20:59.700Z,62.35
2018-10-02T12:25:53.005Z,62.70
2018-10-02T12:30:46.182Z,62.92
2018-10-02T12:35:39.420Z,61.99
2018-10-02T12:40:32.728Z,62.28
2018-10-02T12:45:26.063Z,62.14
2018-10-02T12:50:19.855Z,60.26
2018-10-02T12:55:13.010Z,60.45
2018-10-02T13:00:06.892Z,62.30
2018-10-02T13:05:00.239Z,61.67
2018-10-02T13:09:54.510Z,61.96
2018-10-02T13:14:47.850Z,60.47
2018-10-02T13:19:41.199Z,61.95
2018-10-02T13:24:34.549Z,61.51
2018-10-02T13:29:28.289Z,60.62
2018-10-02T13:34:21.502Z,62.06
2018-10-02T13:39:14.710Z,62.36
2018-10-02T13:44:08.091Z,59.93
2018-10-02T13:49:02.316Z,59.98
2018-10-02T13:53:55.948Z,61.26
2018-10-02T13:58:49.274Z,61.29
2018-10-02T14:03:42.677Z,61.24
2018-10-02T14:08:36.006Z,62.66
2018-10-02T14:13:29.815Z,62.67
2018-10-02T14:18:23.009Z,63.54
2018-10-02T14:23:17.204Z,62.20
2018-10-02T14:28:11.633Z,61.71
2018-10-02T14:33:05.290Z,62.38
2018-10-02T14:37:58.511Z,63.33
2018-10-02T14:42:51.979Z,64.68
2018-10-02T14:47:46.244Z,63.89
2018-10-02T14:52:40.274Z,65.14
2018-10-02T14:57:33.529Z,64.23
2018-10-02T15:02:27.550Z,66.64
2018-10-02T15:07:21.212Z,65.63
2018-10-02T15:12:15.239Z,65.92
2018-10-02T15:17:08.568Z,66.09
2018-10-02T15:22:02.415Z,68.25
2018-10-02T15:26:56.986Z,69.83
2018-10-02T15:31:50.179Z,70.49
2018-10-02T15:36:43.804Z,72.30
2018-10-02T15:41:37.707Z,72.12
2018-10-02T15:46:30.949Z,73.45
2018-10-02T15:51:24.240Z,74.76
2018-10-02T15:56:17.536Z,75.66
2018-10-02T16:01:10.831Z,76.83
2018-10-02T16:06:04.310Z,78.77
2018-10-02T16:10:57.589Z,79.62
2018-10-02T16:15:50.963Z,80.85
2018-10-02T16:20:44.798Z,81.83
2018-10-02T16:25:40.434Z,82.34
2018-10-02T16:30:34.845Z,82.73
2018-10-02T16:35:30.458Z,83.61
2018-10-02T16:40:25.541Z,83.71
2018-10-02T16:45:18.663Z,84.12
2018-10-02T16:50:13.418Z,84.61
2018-10-02T16:55:07.097Z,84.63
2018-10-02T17:00:00.376Z,84.36
2018-10-02T17:04:53.578Z,83.84
2018-10-02T17:09:49.660Z,84.05
2018-10-02T17:14:43.993Z,84.70
2018-10-02T17:19:37.455Z,84.95
2018-10-02T17:24:31.087Z,84.61
2018-10-02T17:29:28.565Z,84.82
2018-10-02T17:34:22.278Z,83.53
2018-10-02T17:39:17.913Z,84.54
2018-10-02T17:44:15.490Z,83.91
2018-10-02T17:49:11.341Z,83.73
2018-10-02T17:54:05.387Z,84.12
2018-10-02T17:59:01.359Z,83.43
2018-10-02T18:03:55.695Z,81.90
2018-10-02T18:08:50.661Z,80.92
2018-10-02T18:13:46.768Z,80.25
2018-10-02T18:18:40.999Z,80.82
2018-10-02T18:23:34.768Z,81.12
2018-10-02T18:28:28.208Z,81.86
2018-10-02T18:33:21.790Z,82.78
2018-10-02T18:38:15.657Z,82.99
2018-10-02T18:43:10.646Z,83.15
2018-10-02T18:48:04.359Z,82.19
2018-10-02T18:52:57.690Z,82.58
2018-10-02T18:57:51.479Z,83.73
2018-10-02T19:02:45.529Z,84.05
2018-10-02T19:07:39.245Z,85.14
2018-10-02T19:12:33.964Z,85.31
2018-10-02T19:17:28.652Z,85.42
2018-10-02T19:22:23.487Z,85.56
2018-10-02T19:27:18.371Z,85.41
2018-10-02T19:32:14.905Z,85.88
2018-10-02T19:37:14.967Z,86.01
2018-10-02T19:42:09.144Z,84.99
2018-10-02T19:47:03.710Z,85.25
2018-10-02T20:02:01.448Z,84.93
2018-10-02T20:06:57.792Z,85.93
2018-10-02T20:11:51.528Z,86.09
2018-10-02T20:16:47.974Z,86.60
2018-10-02T20:21:41.434Z,86.86
2018-10-02T20:26:35.456Z,87.70
2018-10-02T20:31:31.243Z,87.91
2018-10-02T20:36:26.317Z,88.40
2018-10-02T20:41:20.459Z,88.85
2018-10-02T20:46:14.219Z,88.45
2018-10-02T20:51:07.718Z,88.81
2018-10-02T20:56:01.263Z,88.09
2018-10-02T21:00:55.646Z,87.63
2018-10-02T21:05:50.014Z,87.69
2018-10-02T21:10:43.742Z,87.58
2018-10-02T21:15:37.501Z,88.21
2018-10-02T21:20:30.828Z,87.87
2018-10-02T21:25:24.155Z,87.14
2018-10-02T21:30:18.076Z,87.20
2018-10-02T21:35:12.146Z,87.29
2018-10-02T21:40:05.831Z,87.82
2018-10-02T21:45:00.033Z,87.68
2018-10-02T21:49:53.878Z,86.59
2018-10-02T21:54:47.600Z,86.79
2018-10-02T21:59:40.943Z,86.88
2018-10-02T22:04:35.225Z,86.89
2018-10-02T22:09:28.698Z,86.06
2018-10-02T22:14:22.482Z,83.75
2018-10-02T22:19:17.323Z,81.70
2018-10-02T22:24:11.522Z,81.20
2018-10-02T22:29:05.147Z,81.39
2018-10-02T22:33:59.227Z,80.93
2018-10-02T22:38:52.879Z,81.30
2018-10-02T22:43:46.668Z,81.47
2018-10-02T22:48:39.954Z,81.40
2018-10-02T22:53:34.684Z,81.98
2018-10-02T22:58:28.337Z,80.83
2018-10-02T23:03:21.779Z,80.27
2018-10-02T23:08:17.500Z,80.23
2018-10-02T23:13:12.270Z,79.23
2018-10-02T23:18:06.693Z,79.39
2018-10-02T23:23:01.001Z,79.37
2018-10-02T23:27:54.998Z,79.73
2018-10-02T23:32:48.853Z,79.25
2018-10-02T23:37:43.358Z,78.69
2018-10-02T23:42:36.882Z,77.47
2018-10-02T23:47:31.059Z,78.17
2018-10-02T23:52:24.370Z,77.91
2018-10-02T23:57:18.485Z,77.74
